createdAt,value
2018-11-07T00:01:29.544Z,89.20
2018-11-07T00:03:58.444Z,89.10
2018-11-07T00:06:27.460Z,89.10
2018-11-07T00:08:56.083Z,89.00
2018-11-07T00:11:25.173Z,89.30
2018-11-07T00:13:53.821Z,89.00
2018-11-07T00:16:22.964Z,89.20
2018-11-07T00:18:51.673Z,89.00
2018-11-07T00:21:20.390Z,88.90
2018-11-07T00:23:48.988Z,88.90
2018-11-07T00:26:18.429Z,88.50
2018-11-07T00:28:48.513Z,88.00
2018-11-07T00:31:18.132Z,87.70
2018-11-07T00:33:46.854Z,88.00
2018-11-07T00:36:15.552Z,88.20
2018-11-07T00:38:44.196Z,88.10
2018-11-07T00:41:12.955Z,88.30
2018-11-07T00:43:44.259Z,88.10
2018-11-07T00:46:12.875Z,88.10
2018-11-07T00:48:41.555Z,88.20
2018-11-07T00:51:10.269Z,88.30
2018-11-07T00:53:38.920Z,88.40
2018-11-07T00:56:07.558Z,89.20
2018-11-07T00:58:36.368Z,88.20
2018-11-07T01:01:05.080Z,88.50
2018-11-07T01:03:33.753Z,88.70
2018-11-07T01:06:02.397Z,89.10
2018-11-07T01:08:31.065Z,89.70
2018-11-07T01:10:59.790Z,89.70
2018-11-07T01:13:28.438Z,89.60
2018-11-07T01:15:57.484Z,89.40
2018-11-07T01:18:26.127Z,89.40
2018-11-07T01:20:54.746Z,89.50
2018-11-07T01:23:24.027Z,89.70
2018-11-07T01:25:52.639Z,89.70
2018-11-07T01:28:22.241Z,90.00
2018-11-07T01:30:50.928Z,90.00
2018-11-07T01:33:19.664Z,89.70
2018-11-07T01:35:48.290Z,89.70
2018-11-07T01:38:16.981Z,89.60
2018-11-07T01:40:45.628Z,89.80
2018-11-07T01:43:14.259Z,89.40
2018-11-07T01:45:42.928Z,89.50
2018-11-07T01:48:11.568Z,88.90
2018-11-07T01:50:40.191Z,88.80
2018-11-07T01:53:08.851Z,88.60
2018-11-07T01:55:37.870Z,88.30
2018-11-07T01:58:06.482Z,88.20
2018-11-07T02:00:35.163Z,88.20
2018-11-07T02:03:03.811Z,88.20
2018-11-07T02:05:32.476Z,88.00
2018-11-07T02:08:01.161Z,88.20
2018-11-07T02:10:29.815Z,88.20
2018-11-07T02:12:58.452Z,88.40
2018-11-07T02:15:27.168Z,88.30
2018-11-07T02:17:55.761Z,88.50
2018-11-07T02:20:24.401Z,88.20
2018-11-07T02:22:53.106Z,88.30
2018-11-07T02:25:21.735Z,88.30
2018-11-07T02:27:50.376Z,88.50
2018-11-07T02:30:19.022Z,88.80
2018-11-07T02:32:47.678Z,89.10
2018-11-07T02:35:16.332Z,89.10
2018-11-07T02:37:44.960Z,90.00
2018-11-07T02:40:13.588Z,90.00
2018-11-07T02:42:42.581Z,89.90
2018-11-07T02:45:11.399Z,89.70
2018-11-07T02:47:40.038Z,89.90
2018-11-07T02:50:09.541Z,90.10
2018-11-07T02:52:38.186Z,90.10
2018-11-07T02:55:06.961Z,90.10
2018-11-07T02:57:35.615Z,90.10
2018-11-07T03:00:05.829Z,89.80
2018-11-07T03:02:34.495Z,89.90
2018-11-07T03:05:03.411Z,89.80
2018-11-07T03:07:32.040Z,89.80
2018-11-07T03:10:00.745Z,89.80
2018-11-07T03:12:29.357Z,89.60
2018-11-07T03:14:58.768Z,89.10
2018-11-07T03:17:28.097Z,88.70
2018-11-07T03:19:56.752Z,88.80
2018-11-07T03:22:25.588Z,89.30
2018-11-07T03:24:54.216Z,89.30
2018-11-07T03:27:23.006Z,90.00
2018-11-07T03:29:52.082Z,90.10
2018-11-07T03:32:20.807Z,90.10
2018-11-07T03:34:49.717Z,90.20
2018-11-07T03:37:18.501Z,90.10
2018-11-07T03:39:47.294Z,90.00
2018-11-07T03:42:15.870Z,90.00
2018-11-07T03:44:44.563Z,90.00
2018-11-07T03:47:13.199Z,90.10
2018-11-07T03:49:41.863Z,89.00
2018-11-07T03:52:10.508Z,88.90
2018-11-07T03:54:39.383Z,89.50
2018-11-07T03:57:08.012Z,89.10
2018-11-07T03:59:36.622Z,89.30
2018-11-07T04:02:05.511Z,89.90
2018-11-07T04:04:34.244Z,89.90
2018-11-07T04:07:03.309Z,89.70
2018-11-07T04:09:32.031Z,89.70
2018-11-07T04:12:00.640Z,89.60
2018-11-07T04:14:29.304Z,89.50
2018-11-07T04:16:58.099Z,89.50
2018-11-07T04:19:26.737Z,90.10
2018-11-07T04:21:55.559Z,89.20
2018-11-07T04:24:24.216Z,89.00
2018-11-07T04:26:52.831Z,88.90
2018-11-07T04:29:21.519Z,88.70
2018-11-07T04:31:50.127Z,89.00
2018-11-07T04:34:18.722Z,88.90
2018-11-07T04:36:47.423Z,88.60
2018-11-07T04:39:16.064Z,88.70
2018-11-07T04:41:44.659Z,88.70
2018-11-07T04:44:13.635Z,88.90
2018-11-07T04:46:42.291Z,89.00
2018-11-07T04:49:11.031Z,88.60
2018-11-07T04:51:39.815Z,88.30
2018-11-07T04:54:08.462Z,88.90
2018-11-07T04:56:37.195Z,89.00
2018-11-07T04:59:06.762Z,88.70
2018-11-07T05:01:35.731Z,88.60
2018-11-07T05:04:04.334Z,89.00
2018-11-07T05:06:33.264Z,89.30
2018-11-07T05:09:03.343Z,89.20
2018-11-07T05:11:32.030Z,89.30
2018-11-07T05:14:00.651Z,89.50
2018-11-07T05:16:29.299Z,89.00
2018-11-07T05:18:57.942Z,88.40
2018-11-07T05:21:26.627Z,88.80
2018-11-07T05:23:55.296Z,88.60
2018-11-07T05:26:24.007Z,88.50
2018-11-07T05:28:52.583Z,88.10
2018-11-07T05:31:22.056Z,88.00
2018-11-07T05:33:50.668Z,88.20
2018-11-07T05:36:19.302Z,88.60
2018-11-07T05:38:48.015Z,88.70
2018-11-07T05:41:16.767Z,88.60
2018-11-07T05:43:45.307Z,88.70
2018-11-07T05:46:14.078Z,88.60
2018-11-07T05:48:43.277Z,88.60
2018-11-07T05:51:12.022Z,88.60
2018-11-07T05:53:40.709Z,88.50
2018-11-07T05:56:09.339Z,88.60
2018-11-07T05:58:37.973Z,88.30
2018-11-07T06:01:06.583Z,88.70
2018-11-07T06:03:35.278Z,88.50
2018-11-07T06:06:04.199Z,88.50
2018-11-07T06:08:32.839Z,88.70
2018-11-07T06:11:01.476Z,89.70
2018-11-07T06:13:30.119Z,88.90
2018-11-07T06:15:58.807Z,88.70
2018-11-07T06:18:27.404Z,88.60
2018-11-07T06:20:56.059Z,88.80
2018-11-07T06:23:25.715Z,88.90
2018-11-07T06:25:54.373Z,88.90
2018-11-07T06:28:23.287Z,88.50
2018-11-07T06:30:52.020Z,88.50
2018-11-07T06:33:20.846Z,88.30
2018-11-07T06:35:49.810Z,88.50
2018-11-07T06:38:18.430Z,88.60
2018-11-07T06:40:47.449Z,88.50
2018-11-07T06:43:16.303Z,88.50
2018-11-07T06:45:44.956Z,88.40
2018-11-07T06:48:13.559Z,88.20
2018-11-07T06:50:42.272Z,88.00
2018-11-07T06:53:10.909Z,87.80
2018-11-07T06:55:39.532Z,87.60
2018-11-07T06:58:08.792Z,87.50
2018-11-07T07:00:37.391Z,87.70
2018-11-07T07:03:06.099Z,87.80
2018-11-07T07:05:34.994Z,87.80
2018-11-07T07:08:03.629Z,87.80
2018-11-07T07:10:32.239Z,87.40
2018-11-07T07:13:00.858Z,87.00
2018-11-07T07:15:29.507Z,87.10
2018-11-07T07:17:58.205Z,87.70
2018-11-07T07:20:26.815Z,87.80
2018-11-07T07:22:55.451Z,87.80
2018-11-07T07:25:24.897Z,87.50
2018-11-07T07:27:53.466Z,87.30
2018-11-07T07:30:22.683Z,86.90
2018-11-07T07:32:51.602Z,86.20
2018-11-07T07:35:20.211Z,85.70
2018-11-07T07:37:48.933Z,86.20
2018-11-07T07:40:17.602Z,86.00
2018-11-07T07:42:46.797Z,86.10
2018-11-07T07:45:17.660Z,86.00
2018-11-07T07:47:46.553Z,85.30
2018-11-07T07:50:16.427Z,85.30
2018-11-07T07:52:45.432Z,85.30
2018-11-07T07:55:14.189Z,84.70
2018-11-07T07:57:43.231Z,84.60
2018-11-07T08:00:17.445Z,83.60
2018-11-07T08:02:47.138Z,83.50
2018-11-07T08:05:15.850Z,83.60
2018-11-07T08:07:44.847Z,83.30
2018-11-07T08:10:15.743Z,83.00
2018-11-07T08:12:44.729Z,83.40
2018-11-07T08:15:13.740Z,83.70
2018-11-07T08:17:43.163Z,83.40
2018-11-07T08:20:12.856Z,82.90
2018-11-07T08:22:42.635Z,82.40
2018-11-07T08:25:11.251Z,81.70
2018-11-07T08:27:39.975Z,81.40
2018-11-07T08:30:09.951Z,81.40
2018-11-07T08:32:38.640Z,81.40
2018-11-07T08:35:08.455Z,80.90
2018-11-07T08:37:37.152Z,81.10
2018-11-07T08:40:08.488Z,79.90
2018-11-07T08:42:37.297Z,79.50
2018-11-07T08:45:06.644Z,79.10
2018-11-07T08:47:35.379Z,78.80
2018-11-07T08:50:05.056Z,78.40
2018-11-07T08:52:33.716Z,78.20
2018-11-07T08:55:02.476Z,78.60
2018-11-07T08:57:31.028Z,78.80
2018-11-07T09:00:01.201Z,78.40
2018-11-07T09:02:31.004Z,78.80
2018-11-07T09:05:00.587Z,78.30
2018-11-07T09:07:29.240Z,78.20
2018-11-07T09:09:59.250Z,77.90
2018-11-07T09:12:27.944Z,77.60
2018-11-07T09:14:56.555Z,77.50
2018-11-07T09:17:25.218Z,77.40
2018-11-07T09:19:53.851Z,77.10
2018-11-07T09:22:22.848Z,76.60
2018-11-07T09:24:51.510Z,76.20
2018-11-07T09:27:20.361Z,75.10
2018-11-07T09:29:49.266Z,74.30
2018-11-07T09:32:17.918Z,73.10
2018-11-07T09:34:46.925Z,73.20
2018-11-07T09:37:15.577Z,72.50
2018-11-07T09:39:44.342Z,72.10
2018-11-07T09:42:12.904Z,71.60
2018-11-07T09:44:41.623Z,69.80
2018-11-07T09:47:10.271Z,70.20
2018-11-07T09:49:38.931Z,69.60
2018-11-07T09:52:09.227Z,69.10
2018-11-07T09:54:38.419Z,68.60
2018-11-07T09:57:07.059Z,68.00
2018-11-07T09:59:35.797Z,66.80
2018-11-07T10:02:04.716Z,65.60
2018-11-07T10:04:33.364Z,66.20
2018-11-07T10:07:02.151Z,65.50
2018-11-07T10:09:30.790Z,65.80
2018-11-07T10:11:59.491Z,65.30
2018-11-07T10:14:28.125Z,65.00
2018-11-07T10:16:56.760Z,64.90
2018-11-07T10:19:25.371Z,64.00
2018-11-07T10:21:54.045Z,62.00
2018-11-07T10:24:22.652Z,62.20
2018-11-07T10:26:51.370Z,61.50
2018-11-07T10:29:20.460Z,61.00
2018-11-07T10:31:48.645Z,60.60
2018-11-07T10:34:17.312Z,60.00
2018-11-07T10:36:45.941Z,59.00
2018-11-07T10:39:14.596Z,57.90
2018-11-07T10:41:43.261Z,57.80
2018-11-07T10:44:11.937Z,57.50
2018-11-07T10:46:40.600Z,57.70
2018-11-07T10:49:09.497Z,58.30
2018-11-07T10:51:38.141Z,58.30
2018-11-07T10:54:06.713Z,58.90
2018-11-07T10:56:35.351Z,58.60
2018-11-07T10:59:04.032Z,58.40
2018-11-07T11:01:38.147Z,57.40
2018-11-07T11:04:06.859Z,57.30
2018-11-07T11:06:35.460Z,56.80
2018-11-07T11:09:05.256Z,55.90
2018-11-07T11:11:33.877Z,55.70
2018-11-07T11:14:02.688Z,55.60
2018-11-07T11:16:31.335Z,56.40
2018-11-07T11:18:59.953Z,56.10
2018-11-07T11:21:28.563Z,56.40
2018-11-07T11:23:57.203Z,56.30
2018-11-07T11:26:26.379Z,55.60
2018-11-07T11:28:55.007Z,56.20
2018-11-07T11:31:23.634Z,56.60
2018-11-07T11:33:52.298Z,55.60
2018-11-07T11:36:20.870Z,54.90
2018-11-07T11:38:49.483Z,55.20
2018-11-07T11:41:18.735Z,55.40
2018-11-07T11:43:47.520Z,55.30
2018-11-07T11:48:51.233Z,54.40
2018-11-07T11:51:19.850Z,54.40
2018-11-07T11:53:49.220Z,54.30
2018-11-07T11:56:17.831Z,53.90
2018-11-07T11:58:46.481Z,54.60
2018-11-07T12:01:15.106Z,54.20
2018-11-07T12:03:43.736Z,54.40
2018-11-07T12:06:12.342Z,53.90
2018-11-07T12:08:41.087Z,53.90
2018-11-07T12:11:09.588Z,53.00
2018-11-07T12:13:38.253Z,52.50
2018-11-07T12:16:06.859Z,52.60
2018-11-07T12:18:35.468Z,52.50
2018-11-07T12:21:04.119Z,52.30
2018-11-07T12:23:32.734Z,52.20
2018-11-07T12:26:01.780Z,52.20
2018-11-07T12:28:30.513Z,51.80
2018-11-07T12:30:59.123Z,51.70
2018-11-07T12:33:27.740Z,51.70
2018-11-07T12:35:56.563Z,52.50
2018-11-07T12:38:25.274Z,52.70
2018-11-07T12:40:53.899Z,52.60
2018-11-07T12:43:22.541Z,52.90
2018-11-07T12:45:51.177Z,52.40
2018-11-07T12:48:19.811Z,52.30
2018-11-07T12:50:48.467Z,52.50
2018-11-07T12:53:17.070Z,52.30
2018-11-07T12:55:45.680Z,51.80
2018-11-07T12:58:14.392Z,51.90
2018-11-07T13:00:42.960Z,51.90
2018-11-07T13:03:11.553Z,50.90
2018-11-07T13:05:40.168Z,51.40
2018-11-07T13:08:08.785Z,51.10
2018-11-07T13:10:37.387Z,51.20
2018-11-07T13:13:06.019Z,51.20
2018-11-07T13:15:35.081Z,50.60
2018-11-07T13:18:03.732Z,51.30
2018-11-07T13:20:32.975Z,50.90
2018-11-07T13:23:01.651Z,51.00
2018-11-07T13:25:30.308Z,50.70
2018-11-07T13:27:58.957Z,50.80
2018-11-07T13:30:27.507Z,51.00
2018-11-07T13:32:56.161Z,50.50
2018-11-07T13:35:24.758Z,50.60
2018-11-07T13:37:53.891Z,50.50
2018-11-07T13:40:23.441Z,49.80
2018-11-07T13:42:52.084Z,49.80
2018-11-07T13:45:21.722Z,49.80
2018-11-07T13:47:51.515Z,49.60
2018-11-07T13:50:20.507Z,49.00
2018-11-07T13:52:49.169Z,48.30
2018-11-07T13:55:17.758Z,48.20
2018-11-07T13:57:46.672Z,46.30
2018-11-07T14:00:23.806Z,45.50
2018-11-07T14:02:53.266Z,44.70
2018-11-07T14:05:21.972Z,44.80
2018-11-07T14:07:50.503Z,44.70
2018-11-07T14:10:19.105Z,45.10
2018-11-07T14:12:47.838Z,45.10
2018-11-07T14:15:16.433Z,45.10
2018-11-07T14:17:45.146Z,45.00
2018-11-07T14:20:13.776Z,45.20
2018-11-07T14:22:42.519Z,45.10
2018-11-07T14:25:11.865Z,45.80
2018-11-07T14:27:40.674Z,45.20
2018-11-07T14:30:10.651Z,46.10
2018-11-07T14:32:43.994Z,46.90
2018-11-07T14:35:12.680Z,46.30
2018-11-07T14:37:41.580Z,47.00
2018-11-07T14:40:10.689Z,47.50
2018-11-07T14:42:39.438Z,47.70
2018-11-07T14:45:09.016Z,48.00
2018-11-07T14:47:42.140Z,50.60
2018-11-07T14:50:11.759Z,53.20
2018-11-07T14:52:40.410Z,54.40
2018-11-07T14:55:09.815Z,56.20
2018-11-07T14:57:38.425Z,57.40
2018-11-07T15:00:09.340Z,58.10
2018-11-07T15:02:38.492Z,58.80
2018-11-07T15:05:09.329Z,58.90
2018-11-07T15:07:38.239Z,59.30
2018-11-07T15:10:07.899Z,59.60
2018-11-07T15:12:36.730Z,59.90
2018-11-07T15:15:06.963Z,60.10
2018-11-07T15:17:35.605Z,59.90
2018-11-07T15:20:04.332Z,60.70
2018-11-07T15:22:32.959Z,61.00
2018-11-07T15:25:01.700Z,61.20
2018-11-07T15:27:30.237Z,61.30
2018-11-07T15:29:58.902Z,61.90
2018-11-07T15:32:27.499Z,62.30
2018-11-07T15:34:56.764Z,62.50
2018-11-07T15:37:25.441Z,62.70
2018-11-07T15:39:54.033Z,63.10
2018-11-07T15:42:22.803Z,63.50
2018-11-07T15:44:51.944Z,63.80
2018-11-07T15:47:20.613Z,64.20
2018-11-07T15:49:55.011Z,64.60
2018-11-07T15:52:23.832Z,64.90
2018-11-07T15:54:52.413Z,65.50
2018-11-07T15:57:21.136Z,65.70
2018-11-07T15:59:49.967Z,66.30
2018-11-07T16:02:18.571Z,66.80
2018-11-07T16:04:47.171Z,67.10
2018-11-07T16:07:15.792Z,67.20
2018-11-07T16:09:44.407Z,67.40
2018-11-07T16:12:13.043Z,67.70
2018-11-07T16:14:41.696Z,68.10
2018-11-07T16:17:10.314Z,68.20
2018-11-07T16:19:38.948Z,68.70
2018-11-07T16:22:07.679Z,68.50
2018-11-07T16:24:36.300Z,68.70
2018-11-07T16:27:05.235Z,69.20
2018-11-07T16:29:33.843Z,69.30
2018-11-07T16:32:02.466Z,69.40
2018-11-07T16:34:31.198Z,69.50
2018-11-07T16:36:59.854Z,69.60
2018-11-07T16:39:28.539Z,69.70
2018-11-07T16:41:57.163Z,69.80
2018-11-07T16:44:25.671Z,70.10
2018-11-07T16:46:54.385Z,70.20
2018-11-07T16:49:22.927Z,70.30
2018-11-07T16:51:51.552Z,70.30
2018-11-07T16:54:21.696Z,70.30
2018-11-07T16:56:50.530Z,70.40
2018-11-07T16:59:19.456Z,70.70
2018-11-07T17:01:48.268Z,70.60
2018-11-07T17:04:17.448Z,70.70
2018-11-07T17:06:46.024Z,70.90
2018-11-07T17:09:14.859Z,71.30
2018-11-07T17:11:43.515Z,71.40
2018-11-07T17:14:12.119Z,71.40
2018-11-07T17:16:40.746Z,71.40
2018-11-07T17:19:09.379Z,71.40
2018-11-07T17:21:37.987Z,71.30
2018-11-07T17:24:06.715Z,71.20
2018-11-07T17:26:35.248Z,71.30
2018-11-07T17:29:04.028Z,71.40
2018-11-07T17:31:32.742Z,71.30
2018-11-07T17:34:01.265Z,71.50
2018-11-07T17:36:29.906Z,71.40
2018-11-07T17:38:58.554Z,71.70
2018-11-07T17:41:27.286Z,71.70
2018-11-07T17:43:55.908Z,71.80
2018-11-07T17:46:24.694Z,72.00
2018-11-07T17:48:53.346Z,72.30
2018-11-07T17:51:21.980Z,72.40
2018-11-07T17:53:50.627Z,72.10
2018-11-07T17:56:19.443Z,72.10
2018-11-07T17:58:47.992Z,72.30
2018-11-07T18:01:16.623Z,73.40
2018-11-07T18:03:45.955Z,73.10
2018-11-07T18:06:14.667Z,73.20
2018-11-07T18:08:43.259Z,73.10
2018-11-07T18:11:11.887Z,73.30
2018-11-07T18:13:40.577Z,73.30
2018-11-07T18:16:09.124Z,73.40
2018-11-07T18:18:37.763Z,73.90
2018-11-07T18:21:06.428Z,74.60
2018-11-07T18:23:35.022Z,75.30
2018-11-07T18:26:04.112Z,75.70
2018-11-07T18:28:32.746Z,76.00
2018-11-07T18:31:01.368Z,75.80
2018-11-07T18:33:29.968Z,75.70
2018-11-07T18:35:58.597Z,75.80
2018-11-07T18:38:27.342Z,75.60
2018-11-07T18:40:55.992Z,75.50
2018-11-07T18:43:24.612Z,75.50
2018-11-07T18:45:53.276Z,75.70
2018-11-07T18:48:21.901Z,75.80
2018-11-07T18:50:50.566Z,75.80
2018-11-07T18:53:19.204Z,76.00
2018-11-07T18:55:47.810Z,76.20
2018-11-07T18:58:16.445Z,76.30
2018-11-07T19:00:45.103Z,76.10
2018-11-07T19:03:13.746Z,76.50
2018-11-07T19:05:42.379Z,76.70
2018-11-07T19:08:10.992Z,77.00
2018-11-07T19:10:40.427Z,77.50
2018-11-07T19:13:09.024Z,77.80
2018-11-07T19:15:37.658Z,77.80
2018-11-07T19:18:06.427Z,77.60
2018-11-07T19:20:35.986Z,77.80
2018-11-07T19:23:04.663Z,77.90
2018-11-07T19:25:33.293Z,78.10
2018-11-07T19:28:01.932Z,78.50
2018-11-07T19:30:30.547Z,78.50
2018-11-07T19:32:59.400Z,78.60
2018-11-07T19:35:27.971Z,78.70
2018-11-07T19:37:56.591Z,78.90
2018-11-07T19:40:26.072Z,78.90
2018-11-07T19:42:55.099Z,79.00
2018-11-07T19:45:24.328Z,79.10
2018-11-07T19:47:52.999Z,79.00
2018-11-07T19:50:22.216Z,78.90
2018-11-07T19:52:51.400Z,78.60
2018-11-07T19:55:21.880Z,78.90
2018-11-07T19:57:54.319Z,78.60
2018-11-07T20:00:23.016Z,78.70
2018-11-07T20:02:51.636Z,78.80
2018-11-07T20:05:20.456Z,79.00
2018-11-07T20:07:49.072Z,79.20
2018-11-07T20:10:19.190Z,79.60
2018-11-07T20:12:47.757Z,80.10
2018-11-07T20:15:17.669Z,80.10
2018-11-07T20:17:46.332Z,80.20
2018-11-07T20:20:15.124Z,80.20
2018-11-07T20:22:44.309Z,80.10
2018-11-07T20:25:13.748Z,79.80
2018-11-07T20:27:42.856Z,80.00
2018-11-07T20:30:13.124Z,80.10
2018-11-07T20:32:42.441Z,81.20
2018-11-07T20:35:12.408Z,81.40
2018-11-07T20:37:41.394Z,81.80
2018-11-07T20:40:12.840Z,81.90
2018-11-07T20:42:41.462Z,82.10
2018-11-07T20:45:11.991Z,82.00
2018-11-07T20:47:40.986Z,81.90
2018-11-07T20:50:11.667Z,81.50
2018-11-07T20:52:41.509Z,81.50
2018-11-07T20:55:11.939Z,81.40
2018-11-07T20:57:41.141Z,81.20
2018-11-07T21:00:12.561Z,81.20
2018-11-07T21:02:41.783Z,81.10
2018-11-07T21:05:11.394Z,81.50
2018-11-07T21:07:41.388Z,81.20
2018-11-07T21:10:17.225Z,81.40
2018-11-07T21:12:46.244Z,81.50
2018-11-07T21:15:16.052Z,82.00
2018-11-07T21:17:45.154Z,82.10
2018-11-07T21:20:13.824Z,82.00
2018-11-07T21:22:42.991Z,81.90
2018-11-07T21:25:12.120Z,82.10
2018-11-07T21:27:41.436Z,82.10
2018-11-07T21:30:11.366Z,82.10
2018-11-07T21:32:40.358Z,81.90
2018-11-07T21:35:09.181Z,81.70
2018-11-07T21:37:37.837Z,81.50
2018-11-07T21:40:08.335Z,82.30
2018-11-07T21:42:37.211Z,81.30
2018-11-07T21:45:07.972Z,81.50
2018-11-07T21:47:36.771Z,81.90
2018-11-07T21:50:06.588Z,81.80
2018-11-07T21:52:35.212Z,81.80
2018-11-07T21:55:04.372Z,81.90
2018-11-07T21:57:33.014Z,81.80
2018-11-07T22:00:02.379Z,81.80
2018-11-07T22:02:31.123Z,82.10
2018-11-07T22:04:59.879Z,81.90
2018-11-07T22:07:28.511Z,81.90
2018-11-07T22:09:57.136Z,82.30
2018-11-07T22:12:25.787Z,82.30
2018-11-07T22:14:54.424Z,82.30
2018-11-07T22:17:23.065Z,82.30
2018-11-07T22:19:51.723Z,82.40
2018-11-07T22:22:20.370Z,82.30
2018-11-07T22:24:49.673Z,82.30
2018-11-07T22:27:18.460Z,82.30
2018-11-07T22:29:47.115Z,82.30
2018-11-07T22:32:15.739Z,82.40
2018-11-07T22:34:44.823Z,82.80
2018-11-07T22:37:13.531Z,82.80
2018-11-07T22:39:42.139Z,83.00
2018-11-07T22:42:10.776Z,81.90
2018-11-07T22:44:39.421Z,81.60
2018-11-07T22:47:08.065Z,81.70
2018-11-07T22:49:36.700Z,81.50
2018-11-07T22:52:05.566Z,81.20
2018-11-07T22:54:34.950Z,81.80
2018-11-07T22:57:03.570Z,82.20
2018-11-07T22:59:32.681Z,82.40
2018-11-07T23:02:01.352Z,82.40
2018-11-07T23:04:30.005Z,82.40
2018-11-07T23:06:58.685Z,82.90
2018-11-07T23:09:27.425Z,83.10
2018-11-07T23:11:56.293Z,83.20
2018-11-07T23:14:24.966Z,83.60
2018-11-07T23:16:53.576Z,83.40
2018-11-07T23:19:23.066Z,83.20
2018-11-07T23:21:51.747Z,83.10
2018-11-07T23:24:20.382Z,83.00
2018-11-07T23:26:48.997Z,83.40
2018-11-07T23:29:17.655Z,83.10
2018-11-07T23:31:46.279Z,83.10
2018-11-07T23:34:14.895Z,83.50
2018-11-07T23:36:43.531Z,83.80
2018-11-07T23:39:12.322Z,84.10
2018-11-07T23:41:40.973Z,83.70
2018-11-07T23:44:09.599Z,84.00
2018-11-07T23:46:38.275Z,83.90
2018-11-07T23:49:06.913Z,84.00
2018-11-07T23:51:35.541Z,84.40
2018-11-07T23:54:04.209Z,84.20
2018-11-07T23:56:32.883Z,83.60
2018-11-07T23:59:01.553Z,84.10
